Portada
METAR-TAF:

METAR-TAF

Aeroports :

Dharamsala, Índia

latitud: 32-09-54N, longitud: 76-15-48E, altitud: 770 m

Observació

L'informe es va fer fa 7 hores i 13 minuts, a les 08:00 UTC
Vent 2 kt del Sud
Temperatura 22°C
Humitat 43%
Pressió 1018 hPa
Visibilitat: 6000 m
Escasses núvols a una alçada de 8000 ft

METAR: VIGG 060800Z 18002KT 6000 FEW080 22/09 Q1018

Hora: 20:43 (15:13 UTC)

Pronòstic

L'informe es va fer fa 10 hores i 13 minuts, a les 05:00 UTC
Pronòstic vàlid del 06 a les 06 UTC al 06 a les 15 UTC
Vent kt del Nord
Visibilitat: 6000 m
Escasses núvols a una alçada de 3500 ft
Núvols disperses a una alçada de 8000 ft

TAF: VIGG 060500Z 0606/0615 00000KT 6000 FEW035 SCT080

Observacions i pronòstics meteorològics de més de 4000 aeroports (METAR i TAF).

Les estacions disponibles són els punts grocs i vermells al mapa.

Posi el ratolí al punt desitjat per veure el nom de l'estació.

Feu clic per veure les observacions i els pronòstics meteorològics.

Per canviar el mapa: feu clic els botons verds amb una creu de color negre per apropar; al botó verd amb un guió per allunyar la imatge; o en les fletxes verdes per a mapes adjacents.


METAR-TAF: